TimeEST,TemperatureF,Dew PointF,Humidity,Sea Level PressureIn,VisibilityMPH,Wind Direction,Wind SpeedMPH,Gust SpeedMPH,PrecipitationIn,Events,Conditions,WindDirDegrees,DateUTC
12:54 AM,25.0,21.9,88,30.29,-9999.0,North,-9999.0,-,N/A,,Unknown,0,2011-11-07 05:54:00
1:54 AM,25.0,21.9,88,30.29,-9999.0,North,-9999.0,-,N/A,,Unknown,0,2011-11-07 06:54:00
2:54 AM,24.1,21.0,88,30.29,-9999.0,North,-9999.0,-,N/A,,Unknown,0,2011-11-07 07:54:00
3:54 AM,23.0,21.0,92,30.29,-9999.0,North,-9999.0,-,N/A,,Unknown,0,2011-11-07 08:54:00
4:54 AM,23.0,19.9,88,30.30,-9999.0,North,-9999.0,-,N/A,,Unknown,0,2011-11-07 09:54:00
5:54 AM,21.9,19.9,92,30.31,-9999.0,North,-9999.0,-,N/A,,Unknown,0,2011-11-07 10:54:00
6:54 AM,21.0,19.0,92,30.32,-9999.0,North,-9999.0,-,N/A,,Unknown,0,2011-11-07 11:54:00
7:54 AM,24.1,21.0,88,30.31,-9999.0,North,-9999.0,-,N/A,,Unknown,0,2011-11-07 12:54:00
8:54 AM,28.9,23.0,78,30.30,-9999.0,North,-9999.0,-,N/A,,Unknown,0,2011-11-07 13:54:00
10:54 AM,42.1,27.0,55,30.23,-9999.0,North,-9999.0,-,N/A,,Unknown,0,2011-11-07 15:54:00
11:54 AM,48.9,27.0,43,30.19,-9999.0,North,-9999.0,-,N/A,,Unknown,0,2011-11-07 16:54:00
12:54 PM,52.0,27.0,38,30.17,-9999.0,North,-9999.0,-,N/A,,Unknown,0,2011-11-07 17:54:00
1:54 PM,54.0,28.9,38,30.14,-9999.0,North,-9999.0,-,N/A,,Unknown,0,2011-11-07 18:54:00
2:54 PM,55.9,30.9,39,30.13,-9999.0,North,-9999.0,-,N/A,,Unknown,0,2011-11-07 19:54:00
3:54 PM,54.0,32.0,43,30.14,-9999.0,North,-9999.0,-,N/A,,Unknown,0,2011-11-07 20:54:00
4:54 PM,46.9,34.0,61,30.15,-9999.0,North,-9999.0,-,N/A,,Unknown,0,2011-11-07 21:54:00
5:54 PM,42.1,34.0,73,30.16,-9999.0,North,-9999.0,-,N/A,,Unknown,0,2011-11-07 22:54:00
6:54 PM,39.9,33.1,77,30.17,-9999.0,North,-9999.0,-,N/A,,Unknown,0,2011-11-07 23:54:00
7:54 PM,37.0,32.0,82,30.18,-9999.0,North,-9999.0,-,N/A,,Unknown,0,2011-11-08 00:54:00
8:54 PM,36.0,30.9,82,30.19,-9999.0,North,-9999.0,-,N/A,,Unknown,0,2011-11-08 01:54:00
9:54 PM,34.0,30.9,89,30.19,-9999.0,North,-9999.0,-,N/A,,Unknown,0,2011-11-08 02:54:00
10:54 PM,33.1,30.0,89,30.20,-9999.0,North,-9999.0,-,N/A,,Unknown,0,2011-11-08 03:54:00
11:54 PM,32.0,28.9,88,30.20,-9999.0,North,-9999.0,-,N/A,,Unknown,0,2011-11-08 04:54:00